createdAt,value
2018-09-05T00:00:37.416Z,49.79
2018-09-05T00:03:08.147Z,49.81
2018-09-05T00:05:38.815Z,47.40
2018-09-05T00:08:09.511Z,46.75
2018-09-05T00:10:40.242Z,48.45
2018-09-05T00:13:10.703Z,49.76
2018-09-05T00:15:41.218Z,50.65
2018-09-05T00:18:11.954Z,50.43
2018-09-05T00:20:42.265Z,49.03
2018-09-05T00:23:13.909Z,48.89
2018-09-05T00:25:44.633Z,47.44
2018-09-05T00:28:15.282Z,46.78
2018-09-05T00:30:45.655Z,47.28
2018-09-05T00:33:17.501Z,47.59
2018-09-05T00:35:48.044Z,46.55
2018-09-05T00:38:18.335Z,47.80
2018-09-05T00:40:48.925Z,47.48
2018-09-05T00:43:20.539Z,46.81
2018-09-05T00:45:50.998Z,47.59
2018-09-05T00:48:21.558Z,45.98
2018-09-05T00:50:51.991Z,45.55
2018-09-05T00:53:23.434Z,45.87
2018-09-05T00:55:53.928Z,46.76
2018-09-05T00:58:24.610Z,47.53
2018-09-05T01:00:55.126Z,48.89
2018-09-05T01:03:26.050Z,47.35
2018-09-05T01:05:56.585Z,46.49
2018-09-05T01:08:26.989Z,46.18
2018-09-05T01:10:57.730Z,46.89
2018-09-05T01:13:29.495Z,48.67
2018-09-05T01:16:00.139Z,47.42
2018-09-05T01:18:30.649Z,46.20
2018-09-05T01:21:01.256Z,46.16
2018-09-05T01:23:32.138Z,45.53
2018-09-05T01:26:02.761Z,46.11
2018-09-05T01:28:32.859Z,48.88
2018-09-05T01:31:03.427Z,49.43
2018-09-05T01:33:37.060Z,47.56
2018-09-05T01:36:13.369Z,47.25
2018-09-05T01:38:44.439Z,45.90
2018-09-05T01:41:15.558Z,45.33
2018-09-05T01:43:47.025Z,46.09
2018-09-05T01:46:17.723Z,45.15
2018-09-05T01:48:48.122Z,45.47
2018-09-05T01:51:18.595Z,44.59
2018-09-05T01:53:50.443Z,44.86
2018-09-05T01:56:20.834Z,44.50
2018-09-05T01:58:51.209Z,46.23
2018-09-05T02:01:22.032Z,45.84
2018-09-05T02:03:52.330Z,44.69
2018-09-05T02:06:22.787Z,45.93
2018-09-05T02:08:53.089Z,46.60
2018-09-05T02:11:24.332Z,46.55
2018-09-05T02:13:55.481Z,45.89
2018-09-05T02:16:25.714Z,46.15
2018-09-05T02:18:56.208Z,46.22
2018-09-05T02:21:26.674Z,45.33
2018-09-05T02:23:57.628Z,46.00
2018-09-05T02:26:28.226Z,45.58
2018-09-05T02:28:58.578Z,46.05
2018-09-05T02:31:29.234Z,46.46
2018-09-05T02:34:00.202Z,46.82
2018-09-05T02:36:30.539Z,46.26
2018-09-05T02:39:01.103Z,45.60
2018-09-05T02:41:31.514Z,48.55
2018-09-05T02:44:32.754Z,52.95
2018-09-05T02:47:03.123Z,53.51
2018-09-05T02:49:33.906Z,51.72
2018-09-05T02:52:04.452Z,48.94
2018-09-05T02:54:35.096Z,50.47
2018-09-05T02:57:05.539Z,51.05
2018-09-05T02:59:36.521Z,51.38
2018-09-05T03:02:07.119Z,52.08
2018-09-05T03:04:37.378Z,53.28
2018-09-05T03:07:07.907Z,53.02
2018-09-05T03:09:38.494Z,51.22
2018-09-05T03:12:09.533Z,53.39
2018-09-05T03:14:40.075Z,55.50
2018-09-05T03:17:10.660Z,56.20
2018-09-05T03:19:41.684Z,55.22
2018-09-05T03:22:13.411Z,53.13
2018-09-05T03:24:43.853Z,53.79
2018-09-05T03:27:14.029Z,55.84
2018-09-05T03:29:44.729Z,55.10
2018-09-05T03:32:15.542Z,54.54
2018-09-05T03:34:45.952Z,53.55
2018-09-05T03:37:16.457Z,52.08
2018-09-05T03:39:47.132Z,54.26
2018-09-05T03:42:18.730Z,55.49
2018-09-05T03:44:49.630Z,54.14
2018-09-05T03:47:20.026Z,55.38
2018-09-05T03:49:50.616Z,55.16
2018-09-05T03:52:21.138Z,55.45
2018-09-05T03:54:51.377Z,54.38
2018-09-05T03:57:21.472Z,52.66
2018-09-05T03:59:51.751Z,52.75
2018-09-05T04:02:23.072Z,51.88
2018-09-05T04:04:53.845Z,50.73
2018-09-05T04:07:24.294Z,51.99
2018-09-05T04:09:55.220Z,52.19
2018-09-05T04:12:27.480Z,52.38
2018-09-05T04:14:57.838Z,52.12
2018-09-05T04:17:28.275Z,52.33
2018-09-05T04:19:58.881Z,52.37
2018-09-05T04:22:30.294Z,52.06
2018-09-05T04:25:00.995Z,52.00
2018-09-05T04:27:31.701Z,51.79
2018-09-05T04:30:02.227Z,51.99
2018-09-05T04:32:32.558Z,51.28
2018-09-05T04:35:03.244Z,51.20
2018-09-05T04:37:33.633Z,50.86
2018-09-05T04:40:04.333Z,50.73
2018-09-05T04:42:36.182Z,51.02
2018-09-05T04:45:07.385Z,51.29
2018-09-05T04:47:38.134Z,50.89
2018-09-05T04:50:08.387Z,51.89
2018-09-05T04:52:39.412Z,49.40
2018-09-05T04:55:09.907Z,50.75
2018-09-05T04:57:40.299Z,49.36
2018-09-05T05:00:10.759Z,50.10
2018-09-05T05:02:41.160Z,51.90
2018-09-05T05:05:11.775Z,54.68
2018-09-05T05:07:42.251Z,53.13
2018-09-05T05:10:12.911Z,53.70
2018-09-05T05:12:44.556Z,55.04
2018-09-05T05:15:15.378Z,56.31
2018-09-05T05:17:46.061Z,54.40
2018-09-05T05:20:16.662Z,53.57
2018-09-05T05:22:47.271Z,52.01
2018-09-05T05:25:17.857Z,50.71
2018-09-05T05:27:48.502Z,49.84
2018-09-05T05:30:19.197Z,49.36
2018-09-05T05:32:50.890Z,50.55
2018-09-05T05:35:21.462Z,48.75
2018-09-05T05:37:52.090Z,48.89
2018-09-05T05:40:22.636Z,49.21
2018-09-05T05:42:53.379Z,47.83
2018-09-05T05:45:24.022Z,50.74
2018-09-05T05:47:54.443Z,51.97
2018-09-05T05:50:24.845Z,54.48
2018-09-05T05:52:56.182Z,49.87
2018-09-05T05:55:26.811Z,50.60
2018-09-05T05:57:57.419Z,51.57
2018-09-05T06:00:27.957Z,50.67
2018-09-05T06:02:58.739Z,50.34
2018-09-05T06:05:28.610Z,49.01
2018-09-05T06:07:58.363Z,49.40
2018-09-05T06:10:28.873Z,49.27
2018-09-05T06:12:59.456Z,46.81
2018-09-05T06:15:29.788Z,47.19
2018-09-05T06:17:59.782Z,45.94
2018-09-05T06:20:29.486Z,45.44
2018-09-05T06:22:59.516Z,44.17
2018-09-05T06:25:29.368Z,43.48
2018-09-05T06:27:59.370Z,40.92
2018-09-05T06:30:29.356Z,41.32
2018-09-05T06:32:59.443Z,42.54
2018-09-05T06:35:29.194Z,40.76
2018-09-05T06:37:59.206Z,40.44
2018-09-05T06:40:29.122Z,41.78
2018-09-05T06:42:58.987Z,39.48
2018-09-05T06:45:28.835Z,39.93
2018-09-05T06:47:58.603Z,38.54
2018-09-05T06:50:28.449Z,39.79
2018-09-05T06:52:58.138Z,39.60
2018-09-05T06:55:27.906Z,39.58
2018-09-05T06:57:57.944Z,37.39
2018-09-05T07:00:28.782Z,35.45
2018-09-05T07:03:00.254Z,36.19
2018-09-05T07:05:30.941Z,35.11
2018-09-05T07:08:01.227Z,36.26
2018-09-05T07:10:31.659Z,36.53
2018-09-05T07:13:03.097Z,35.77
2018-09-05T07:15:33.895Z,34.58
2018-09-05T07:18:04.306Z,34.48
2018-09-05T07:20:34.447Z,34.77
2018-09-05T07:23:05.824Z,34.57
2018-09-05T07:25:36.526Z,36.80
2018-09-05T07:28:07.108Z,36.16
2018-09-05T07:30:37.792Z,34.99
2018-09-05T07:33:08.490Z,34.83
2018-09-05T07:35:38.314Z,33.39
2018-09-05T07:38:08.249Z,32.01
2018-09-05T07:40:38.123Z,31.51
2018-09-05T07:43:08.059Z,30.44
2018-09-05T07:45:38.419Z,30.83
2018-09-05T07:48:08.222Z,30.27
2018-09-05T07:50:38.083Z,29.58
2018-09-05T07:53:07.916Z,29.50
2018-09-05T07:55:37.600Z,30.59
2018-09-05T07:58:07.438Z,29.01
2018-09-05T08:00:37.219Z,29.95
2018-09-05T08:03:07.052Z,29.18
2018-09-05T08:06:27.032Z,29.28
2018-09-05T08:08:57.548Z,28.18
2018-09-05T08:11:28.401Z,25.25
2018-09-05T08:13:59.261Z,24.59
2018-09-05T08:16:29.952Z,23.98
2018-09-05T08:19:00.524Z,22.92
2018-09-05T08:21:30.959Z,23.43
2018-09-05T08:24:01.497Z,21.75
2018-09-05T08:26:31.908Z,24.68
2018-09-05T08:29:02.547Z,23.96
2018-09-05T08:31:32.935Z,24.62
2018-09-05T08:34:03.771Z,24.15
2018-09-05T08:36:34.611Z,22.26
2018-09-05T08:39:05.620Z,20.82
2018-09-05T08:41:36.019Z,20.46
2018-09-05T08:44:06.587Z,20.95
2018-09-05T08:46:36.893Z,21.60
2018-09-05T08:49:07.637Z,21.74
2018-09-05T08:51:37.917Z,22.15
2018-09-05T08:54:09.673Z,20.31
2018-09-05T08:56:40.172Z,19.51
2018-09-05T08:59:10.949Z,19.63
2018-09-05T09:01:41.262Z,19.28
2018-09-05T09:04:12.083Z,18.84
2018-09-05T09:06:42.795Z,19.31
2018-09-05T09:09:13.625Z,21.70
2018-09-05T09:11:50.867Z,19.48
2018-09-05T09:14:22.086Z,19.68
2018-09-05T09:16:53.007Z,20.83
2018-09-05T09:19:23.587Z,20.50
2018-09-05T09:21:54.114Z,21.61
2018-09-05T09:24:25.267Z,22.36
2018-09-05T09:26:55.917Z,22.15
2018-09-05T09:29:26.526Z,23.52
2018-09-05T09:31:57.138Z,24.42
2018-09-05T09:34:28.565Z,24.44
2018-09-05T09:36:59.059Z,26.58
2018-09-05T09:39:29.427Z,28.16
2018-09-05T09:41:59.849Z,26.53
2018-09-05T09:44:30.773Z,27.69
2018-09-05T09:47:01.458Z,25.95
2018-09-05T09:49:31.871Z,26.50
2018-09-05T09:52:07.147Z,26.48
2018-09-05T09:54:38.788Z,25.28
2018-09-05T09:57:09.345Z,23.26
2018-09-05T09:59:39.987Z,22.24
2018-09-05T10:02:15.444Z,21.46
2018-09-05T10:04:51.623Z,21.01
2018-09-05T10:07:27.370Z,21.51
2018-09-05T10:11:05.236Z,21.45
2018-09-05T10:13:40.922Z,21.64
2018-09-05T10:16:16.365Z,20.05
2018-09-05T10:18:48.839Z,20.80
2018-09-05T10:21:19.375Z,20.32
2018-09-05T10:23:51.189Z,21.97
2018-09-05T10:26:21.716Z,20.06
2018-09-05T10:28:52.422Z,20.29
2018-09-05T10:31:23.178Z,19.24
2018-09-05T10:33:53.724Z,19.82
2018-09-05T10:36:24.376Z,20.81
2018-09-05T10:38:54.583Z,22.31
2018-09-05T10:41:25.315Z,20.39
2018-09-05T10:43:56.733Z,21.12
2018-09-05T10:46:27.236Z,21.62
2018-09-05T10:48:57.989Z,19.68
2018-09-05T10:51:33.279Z,19.35
2018-09-05T10:54:04.510Z,20.71
2018-09-05T10:56:35.343Z,19.06
2018-09-05T10:59:06.162Z,21.53
2018-09-05T11:01:36.903Z,22.08
2018-09-05T11:04:08.634Z,22.16
2018-09-05T11:06:39.339Z,21.96
2018-09-05T11:09:12.019Z,21.47
2018-09-05T11:11:42.998Z,22.29
2018-09-05T11:14:14.338Z,23.01
2018-09-05T11:16:44.773Z,22.03
2018-09-05T11:19:14.965Z,20.56
2018-09-05T11:21:45.781Z,20.46
2018-09-05T11:24:17.350Z,19.62
2018-09-05T11:26:47.994Z,20.99
2018-09-05T11:29:18.876Z,20.93
2018-09-05T11:31:49.611Z,20.48
2018-09-05T11:34:20.749Z,20.90
2018-09-05T11:36:51.206Z,20.23
2018-09-05T11:39:21.710Z,20.25
2018-09-05T11:41:51.797Z,19.96
2018-09-05T11:44:23.022Z,18.23
2018-09-05T11:46:53.503Z,18.18
2018-09-05T11:49:24.435Z,17.43
2018-09-05T11:51:54.754Z,17.49
2018-09-05T11:54:25.567Z,19.00
2018-09-05T11:56:56.018Z,18.52
2018-09-05T11:59:26.634Z,18.69
2018-09-05T12:01:57.355Z,16.97
2018-09-05T12:04:28.715Z,18.19
2018-09-05T12:06:59.527Z,18.53
2018-09-05T12:09:29.978Z,18.18
2018-09-05T12:12:00.583Z,17.05
2018-09-05T12:14:32.182Z,17.04
2018-09-05T12:17:02.448Z,15.30
2018-09-05T12:19:32.630Z,17.15
2018-09-05T12:22:02.912Z,16.00
2018-09-05T12:24:33.227Z,16.34
2018-09-05T12:27:03.858Z,17.82
2018-09-05T12:29:34.157Z,17.80
2018-09-05T12:32:05.120Z,17.69
2018-09-05T12:34:36.060Z,17.46
2018-09-05T12:37:06.594Z,17.50
2018-09-05T12:39:37.029Z,17.30
2018-09-05T12:42:07.802Z,18.35
2018-09-05T12:44:38.757Z,20.05
2018-09-05T12:47:09.231Z,21.27
2018-09-05T12:49:40.126Z,20.23
2018-09-05T12:52:10.490Z,20.10
2018-09-05T12:54:41.947Z,20.59
2018-09-05T12:57:12.446Z,20.77
2018-09-05T12:59:42.959Z,21.31
2018-09-05T13:02:13.614Z,21.03
2018-09-05T13:04:44.749Z,22.36
2018-09-05T13:07:15.580Z,20.94
2018-09-05T13:09:45.654Z,20.05
2018-09-05T13:12:16.105Z,21.61
2018-09-05T13:14:47.115Z,21.08
2018-09-05T13:17:17.589Z,21.19
2018-09-05T13:19:48.100Z,21.89
2018-09-05T13:22:18.371Z,23.82
2018-09-05T13:24:49.265Z,27.88
2018-09-05T13:27:19.834Z,29.56
2018-09-05T13:29:50.098Z,33.47
2018-09-05T13:32:20.662Z,33.46
2018-09-05T13:34:51.415Z,34.03
2018-09-05T13:37:21.941Z,33.38
2018-09-05T13:39:52.861Z,34.63
2018-09-05T13:42:23.229Z,35.53
2018-09-05T13:44:54.294Z,35.19
2018-09-05T13:47:24.627Z,36.45
2018-09-05T13:49:54.348Z,36.13
2018-09-05T13:52:24.178Z,38.11
2018-09-05T13:54:54.803Z,39.15
2018-09-05T13:57:55.455Z,39.28
2018-09-05T14:00:25.286Z,39.09
2018-09-05T14:02:55.208Z,39.19
2018-09-05T14:05:25.147Z,39.79
2018-09-05T14:07:54.966Z,39.63
2018-09-05T14:10:24.861Z,40.02
2018-09-05T14:12:54.755Z,40.47
2018-09-05T14:15:24.585Z,40.22
2018-09-05T14:17:54.264Z,39.56
2018-09-05T14:20:24.147Z,40.55
2018-09-05T14:22:53.903Z,40.89
2018-09-05T14:25:23.747Z,38.05
2018-09-05T14:27:53.563Z,36.67
2018-09-05T14:30:23.332Z,36.14
2018-09-05T14:32:53.284Z,36.67
2018-09-05T14:35:23.023Z,40.20
2018-09-05T14:37:52.806Z,38.01
2018-09-05T14:40:22.437Z,37.72
2018-09-05T14:42:52.215Z,39.12
2018-09-05T14:45:21.918Z,40.52
2018-09-05T14:47:51.594Z,41.55
2018-09-05T14:50:22.038Z,41.80
2018-09-05T14:52:51.824Z,41.33
2018-09-05T14:55:21.700Z,42.67
2018-09-05T14:57:51.498Z,42.98
2018-09-05T15:00:21.286Z,39.38
2018-09-05T15:02:51.208Z,39.95
2018-09-05T15:05:21.034Z,40.54
2018-09-05T15:07:51.949Z,40.95
2018-09-05T15:10:21.735Z,38.00
2018-09-05T15:12:52.222Z,38.21
2018-09-05T15:15:22.107Z,39.40
2018-09-05T15:17:51.940Z,38.91
2018-09-05T15:20:21.776Z,36.76
2018-09-05T15:22:51.628Z,38.54
2018-09-05T15:25:21.441Z,39.42
2018-09-05T15:27:51.060Z,39.47
2018-09-05T15:30:20.846Z,40.33
2018-09-05T15:32:50.674Z,42.09
2018-09-05T15:35:20.537Z,41.08
2018-09-05T15:37:50.362Z,41.27
2018-09-05T15:40:20.210Z,41.96
2018-09-05T15:42:49.886Z,39.91
2018-09-05T15:45:19.728Z,41.33
2018-09-05T15:47:49.502Z,40.51
2018-09-05T15:50:19.251Z,41.17
2018-09-05T15:52:49.206Z,42.64
2018-09-05T15:55:19.236Z,42.75
2018-09-05T15:57:49.044Z,42.68
2018-09-05T16:00:18.768Z,42.22
2018-09-05T16:02:48.606Z,41.60
2018-09-05T16:05:18.205Z,42.59
2018-09-05T16:07:48.019Z,43.20
2018-09-05T16:10:17.825Z,44.50
2018-09-05T16:12:47.593Z,45.79
2018-09-05T16:15:17.372Z,47.23
2018-09-05T16:17:47.172Z,45.50
2018-09-05T16:20:16.935Z,47.16
2018-09-05T16:22:46.775Z,45.54
2018-09-05T16:25:16.635Z,45.33
2018-09-05T16:27:46.333Z,47.33
2018-09-05T16:30:16.072Z,45.71
2018-09-05T16:32:45.918Z,46.26
2018-09-05T16:35:15.659Z,46.43
2018-09-05T16:37:45.376Z,46.99
2018-09-05T16:40:15.243Z,46.08
2018-09-05T16:42:45.076Z,44.80
2018-09-05T16:45:14.975Z,45.10
2018-09-05T16:47:44.750Z,44.16
2018-09-05T16:50:14.681Z,44.10
2018-09-05T16:52:44.562Z,45.01
2018-09-05T16:55:14.722Z,47.13
2018-09-05T16:57:44.705Z,48.76
2018-09-05T17:00:14.528Z,48.70
2018-09-05T17:02:44.212Z,48.34
2018-09-05T17:05:13.985Z,46.91
2018-09-05T17:07:43.872Z,48.48
2018-09-05T17:10:13.784Z,48.15
2018-09-05T17:12:43.602Z,46.37
2018-09-05T17:15:13.174Z,46.99
2018-09-05T17:17:42.808Z,46.60
2018-09-05T17:20:12.500Z,46.61
2018-09-05T17:22:42.258Z,46.62
2018-09-05T17:25:12.013Z,46.17
2018-09-05T17:27:41.850Z,46.16
2018-09-05T17:30:11.616Z,45.41
2018-09-05T17:32:41.446Z,47.77
2018-09-05T17:35:11.333Z,46.52
2018-09-05T17:37:41.254Z,46.16
2018-09-05T17:40:11.056Z,46.05
2018-09-05T17:42:40.927Z,45.81
2018-09-05T17:45:10.788Z,45.77
2018-09-05T17:47:40.760Z,45.88
2018-09-05T17:50:10.631Z,45.49
2018-09-05T17:52:40.490Z,45.17
2018-09-05T17:55:10.347Z,46.28
2018-09-05T17:57:40.568Z,45.26
2018-09-05T18:00:10.496Z,47.28
2018-09-05T18:02:40.358Z,46.83
2018-09-05T18:05:10.215Z,48.91
2018-09-05T18:07:40.128Z,49.21
2018-09-05T18:10:09.964Z,50.47
2018-09-05T18:12:39.681Z,49.91
2018-09-05T18:15:09.770Z,49.04
2018-09-05T18:17:39.441Z,47.21
2018-09-05T18:20:09.243Z,46.75
2018-09-05T18:22:39.578Z,47.08
2018-09-05T18:25:10.199Z,47.66
2018-09-05T18:27:40.387Z,47.17
2018-09-05T18:30:10.939Z,47.60
2018-09-05T18:32:42.003Z,47.33
2018-09-05T18:35:12.642Z,47.76
2018-09-05T18:37:43.503Z,48.27
2018-09-05T18:40:13.832Z,49.77
2018-09-05T18:42:45.076Z,50.14
2018-09-05T18:45:15.542Z,50.22
2018-09-05T18:47:46.129Z,49.11
2018-09-05T18:50:16.870Z,47.80
2018-09-05T18:52:48.596Z,46.92
2018-09-05T18:55:18.839Z,49.22
2018-09-05T18:57:49.110Z,50.80
2018-09-05T19:00:18.892Z,48.70
2018-09-05T19:02:49.519Z,49.74
2018-09-05T19:05:19.543Z,48.98
2018-09-05T19:07:50.041Z,48.98
2018-09-05T19:10:20.834Z,51.02
2018-09-05T19:12:51.782Z,49.91
2018-09-05T19:15:21.638Z,49.97
2018-09-05T19:17:51.554Z,49.58
2018-09-05T19:20:21.893Z,49.79
2018-09-05T19:22:51.878Z,49.17
2018-09-05T19:25:21.720Z,49.44
2018-09-05T19:27:51.530Z,49.44
2018-09-05T19:30:21.307Z,49.74
2018-09-05T19:32:51.256Z,49.16
2018-09-05T19:35:21.780Z,49.94
2018-09-05T19:37:52.456Z,49.64
2018-09-05T19:40:23.221Z,48.80
2018-09-05T19:42:53.947Z,48.20
2018-09-05T19:45:23.772Z,47.92
2018-09-05T19:47:53.485Z,48.45
2018-09-05T19:50:23.301Z,48.40
2018-09-05T19:52:53.039Z,48.94
2018-09-05T19:55:22.918Z,49.96
2018-09-05T19:57:53.128Z,50.55
2018-09-05T20:00:22.884Z,52.50
2018-09-05T20:02:52.719Z,51.62
2018-09-05T20:05:22.426Z,50.49
2018-09-05T20:07:52.238Z,49.37
2018-09-05T20:10:22.367Z,50.92
2018-09-05T20:12:52.645Z,52.68
2018-09-05T20:15:22.948Z,52.71
2018-09-05T20:17:53.449Z,53.81
2018-09-05T20:20:23.953Z,51.57
2018-09-05T20:22:54.353Z,51.48
2018-09-05T20:25:24.915Z,50.15
2018-09-05T20:27:55.527Z,50.48
2018-09-05T20:30:26.218Z,49.00
2018-09-05T20:32:57.592Z,49.37
2018-09-05T20:35:28.111Z,50.75
2018-09-05T20:37:58.234Z,54.21
2018-09-05T20:40:28.530Z,58.06
2018-09-05T20:43:00.179Z,60.62
2018-09-05T20:45:30.838Z,57.75
2018-09-05T20:48:01.912Z,55.49
2018-09-05T20:50:32.512Z,53.54
2018-09-05T20:53:03.959Z,55.49
2018-09-05T20:55:34.302Z,55.66
2018-09-05T20:58:04.906Z,54.86
2018-09-05T21:00:35.244Z,56.20
2018-09-05T21:03:06.607Z,54.32
2018-09-05T21:05:37.027Z,53.01
2018-09-05T21:08:07.945Z,52.87
2018-09-05T21:10:38.214Z,52.75
2018-09-05T21:13:08.624Z,52.36
2018-09-05T21:15:38.959Z,52.46
2018-09-05T21:18:09.790Z,55.74
2018-09-05T21:20:40.521Z,57.87
2018-09-05T21:23:11.519Z,59.29
2018-09-05T21:25:42.016Z,60.04
2018-09-05T21:28:11.731Z,56.15
2018-09-05T21:30:42.489Z,58.26
2018-09-05T21:33:14.158Z,59.82
2018-09-05T21:35:44.807Z,58.70
2018-09-05T21:38:15.051Z,56.46
2018-09-05T21:40:45.906Z,54.75
2018-09-05T21:43:17.095Z,54.25
2018-09-05T21:45:47.572Z,53.34
2018-09-05T21:48:18.267Z,57.72
2018-09-05T21:50:48.028Z,55.79
2018-09-05T21:53:18.964Z,54.90
2018-09-05T21:55:49.455Z,54.95
2018-09-05T21:58:19.810Z,55.10
2018-09-05T22:00:50.445Z,53.68
2018-09-05T22:03:20.582Z,54.34
2018-09-05T22:05:50.252Z,53.09
2018-09-05T22:08:20.123Z,53.39
2018-09-05T22:10:50.037Z,53.50
2018-09-05T22:13:19.989Z,53.93
2018-09-05T22:15:49.792Z,52.01
2018-09-05T22:18:19.659Z,53.27
2018-09-05T22:20:49.516Z,54.41
2018-09-05T22:23:19.226Z,54.10
2018-09-05T22:25:49.118Z,54.59
2018-09-05T22:28:18.899Z,53.63
2018-09-05T22:30:48.658Z,53.43
2018-09-05T22:33:18.437Z,53.84
2018-09-05T22:35:48.243Z,52.31
2018-09-05T22:38:18.124Z,51.72
2018-09-05T22:40:54.935Z,54.17
2018-09-05T22:43:37.247Z,54.26
2018-09-05T22:46:17.747Z,51.25
2018-09-05T22:48:58.220Z,53.79
2018-09-05T22:52:13.697Z,54.14
2018-09-05T22:57:07.095Z,53.78
2018-09-05T23:00:23.955Z,53.79
2018-09-05T23:03:10.137Z,53.94
2018-09-05T23:06:04.158Z,56.73
2018-09-05T23:08:40.799Z,54.04
2018-09-05T23:12:23.182Z,55.20
2018-09-05T23:15:04.088Z,55.84
2018-09-05T23:17:44.600Z,55.17
2018-09-05T23:20:42.889Z,55.16
2018-09-05T23:23:23.440Z,55.42
2018-09-05T23:25:53.113Z,54.64
2018-09-05T23:28:22.935Z,54.15
2018-09-05T23:30:52.752Z,53.11
2018-09-05T23:33:22.535Z,55.26
2018-09-05T23:35:52.295Z,54.88
2018-09-05T23:38:22.055Z,54.62
2018-09-05T23:40:51.713Z,55.02
2018-09-05T23:43:21.436Z,55.82
2018-09-05T23:45:51.276Z,55.87
2018-09-05T23:48:21.238Z,55.05
2018-09-05T23:50:51.153Z,54.17
2018-09-05T23:53:20.925Z,55.02
2018-09-05T23:55:50.671Z,54.31
2018-09-05T23:58:20.479Z,54.18
